sensor_id;sensor_type;location;lat;lon;timestamp;P1;durP1;ratioP1;P2;durP2;ratioP2
46751;SDS011;32497;48.936;9.270;2023-04-07T00:02:34;5.20;;;3.10;;
46751;SDS011;32497;48.936;9.270;2023-04-07T00:07:35;6.90;;;3.70;;
46751;SDS011;32497;48.936;9.270;2023-04-07T00:12:37;6.03;;;3.20;;
46751;SDS011;32497;48.936;9.270;2023-04-07T00:17:39;6.17;;;3.40;;
46751;SDS011;32497;48.936;9.270;2023-04-07T00:22:40;6.17;;;3.30;;
46751;SDS011;32497;48.936;9.270;2023-04-07T00:27:41;8.37;;;3.60;;
46751;SDS011;32497;48.936;9.270;2023-04-07T00:32:44;6.50;;;3.30;;
46751;SDS011;32497;48.936;9.270;2023-04-07T00:37:45;6.50;;;3.40;;
46751;SDS011;32497;48.936;9.270;2023-04-07T00:42:46;6.57;;;3.20;;
46751;SDS011;32497;48.936;9.270;2023-04-07T00:47:48;6.27;;;3.10;;
46751;SDS011;32497;48.936;9.270;2023-04-07T00:52:49;7.17;;;3.23;;
46751;SDS011;32497;48.936;9.270;2023-04-07T00:57:51;5.27;;;2.87;;
46751;SDS011;32497;48.936;9.270;2023-04-07T01:02:55;6.53;;;3.40;;
46751;SDS011;32497;48.936;9.270;2023-04-07T01:07:59;11.40;;;3.10;;
46751;SDS011;32497;48.936;9.270;2023-04-07T01:13:08;6.77;;;3.00;;
46751;SDS011;32497;48.936;9.270;2023-04-07T01:18:19;4.77;;;2.20;;
46751;SDS011;32497;48.936;9.270;2023-04-07T01:23:26;4.33;;;2.33;;
46751;SDS011;32497;48.936;9.270;2023-04-07T01:28:56;6.17;;;2.57;;
46751;SDS011;32497;48.936;9.270;2023-04-07T01:34:12;5.23;;;2.43;;
46751;SDS011;32497;48.936;9.270;2023-04-07T01:39:14;6.10;;;2.70;;
46751;SDS011;32497;48.936;9.270;2023-04-07T01:44:17;6.97;;;3.00;;
46751;SDS011;32497;48.936;9.270;2023-04-07T01:49:20;6.57;;;2.40;;
46751;SDS011;32497;48.936;9.270;2023-04-07T01:54:24;4.53;;;2.53;;
46751;SDS011;32497;48.936;9.270;2023-04-07T01:59:26;8.63;;;3.17;;
46751;SDS011;32497;48.936;9.270;2023-04-07T02:04:31;5.40;;;2.83;;
46751;SDS011;32497;48.936;9.270;2023-04-07T02:09:36;5.27;;;2.80;;
46751;SDS011;32497;48.936;9.270;2023-04-07T02:14:40;6.20;;;2.60;;
46751;SDS011;32497;48.936;9.270;2023-04-07T02:19:46;4.63;;;2.60;;
46751;SDS011;32497;48.936;9.270;2023-04-07T02:24:49;5.10;;;2.57;;
46751;SDS011;32497;48.936;9.270;2023-04-07T02:29:51;6.67;;;2.70;;
46751;SDS011;32497;48.936;9.270;2023-04-07T02:34:53;3.37;;;2.10;;
46751;SDS011;32497;48.936;9.270;2023-04-07T02:39:55;5.53;;;2.67;;
46751;SDS011;32497;48.936;9.270;2023-04-07T02:44:56;5.10;;;2.50;;
46751;SDS011;32497;48.936;9.270;2023-04-07T02:49:58;5.50;;;2.27;;
46751;SDS011;32497;48.936;9.270;2023-04-07T02:54:59;5.90;;;2.60;;
46751;SDS011;32497;48.936;9.270;2023-04-07T03:00:02;6.00;;;2.80;;
46751;SDS011;32497;48.936;9.270;2023-04-07T03:05:20;5.83;;;2.43;;
46751;SDS011;32497;48.936;9.270;2023-04-07T03:10:21;4.80;;;2.80;;
46751;SDS011;32497;48.936;9.270;2023-04-07T03:15:24;6.03;;;3.00;;
46751;SDS011;32497;48.936;9.270;2023-04-07T03:20:27;6.37;;;3.10;;
46751;SDS011;32497;48.936;9.270;2023-04-07T03:25:32;6.40;;;3.10;;
46751;SDS011;32497;48.936;9.270;2023-04-07T03:30:35;5.07;;;2.53;;
46751;SDS011;32497;48.936;9.270;2023-04-07T03:35:38;6.17;;;2.67;;
46751;SDS011;32497;48.936;9.270;2023-04-07T03:40:40;5.00;;;2.87;;
46751;SDS011;32497;48.936;9.270;2023-04-07T03:45:41;5.57;;;2.83;;
46751;SDS011;32497;48.936;9.270;2023-04-07T03:50:45;7.80;;;3.27;;
46751;SDS011;32497;48.936;9.270;2023-04-07T03:55:50;5.70;;;2.90;;
46751;SDS011;32497;48.936;9.270;2023-04-07T04:01:00;5.27;;;3.00;;
46751;SDS011;32497;48.936;9.270;2023-04-07T04:06:03;6.77;;;3.00;;
46751;SDS011;32497;48.936;9.270;2023-04-07T04:11:05;6.87;;;3.10;;
46751;SDS011;32497;48.936;9.270;2023-04-07T04:16:13;7.03;;;3.20;;
46751;SDS011;32497;48.936;9.270;2023-04-07T04:21:17;7.03;;;3.27;;
46751;SDS011;32497;48.936;9.270;2023-04-07T04:26:20;6.17;;;3.03;;
46751;SDS011;32497;48.936;9.270;2023-04-07T04:31:21;7.57;;;3.27;;
46751;SDS011;32497;48.936;9.270;2023-04-07T04:36:24;6.40;;;3.23;;
46751;SDS011;32497;48.936;9.270;2023-04-07T04:41:29;9.77;;;3.77;;
46751;SDS011;32497;48.936;9.270;2023-04-07T04:46:31;5.73;;;3.17;;
46751;SDS011;32497;48.936;9.270;2023-04-07T04:51:34;8.00;;;3.17;;
46751;SDS011;32497;48.936;9.270;2023-04-07T04:56:44;5.77;;;3.33;;
46751;SDS011;32497;48.936;9.270;2023-04-07T05:01:46;6.67;;;3.70;;
46751;SDS011;32497;48.936;9.270;2023-04-07T05:06:51;6.07;;;3.47;;
46751;SDS011;32497;48.936;9.270;2023-04-07T05:11:56;6.60;;;3.30;;
46751;SDS011;32497;48.936;9.270;2023-04-07T05:16:57;7.57;;;3.83;;
46751;SDS011;32497;48.936;9.270;2023-04-07T05:22:03;6.80;;;3.47;;
46751;SDS011;32497;48.936;9.270;2023-04-07T05:27:10;7.33;;;3.83;;
46751;SDS011;32497;48.936;9.270;2023-04-07T05:32:14;6.37;;;3.43;;
46751;SDS011;32497;48.936;9.270;2023-04-07T05:37:17;8.23;;;4.07;;
46751;SDS011;32497;48.936;9.270;2023-04-07T05:42:19;8.30;;;3.83;;
46751;SDS011;32497;48.936;9.270;2023-04-07T05:47:24;8.23;;;3.50;;
46751;SDS011;32497;48.936;9.270;2023-04-07T05:52:27;8.70;;;3.83;;
46751;SDS011;32497;48.936;9.270;2023-04-07T05:57:38;7.17;;;3.20;;
46751;SDS011;32497;48.936;9.270;2023-04-07T06:02:40;7.37;;;3.50;;
46751;SDS011;32497;48.936;9.270;2023-04-07T06:07:48;9.00;;;3.97;;
46751;SDS011;32497;48.936;9.270;2023-04-07T06:12:49;8.53;;;4.17;;
46751;SDS011;32497;48.936;9.270;2023-04-07T06:17:51;7.53;;;3.57;;
46751;SDS011;32497;48.936;9.270;2023-04-07T06:22:53;7.10;;;3.80;;
46751;SDS011;32497;48.936;9.270;2023-04-07T06:27:54;6.87;;;3.47;;
46751;SDS011;32497;48.936;9.270;2023-04-07T06:32:56;11.83;;;4.37;;
46751;SDS011;32497;48.936;9.270;2023-04-07T06:37:59;6.70;;;3.83;;
46751;SDS011;32497;48.936;9.270;2023-04-07T06:43:00;8.70;;;4.37;;
46751;SDS011;32497;48.936;9.270;2023-04-07T06:48:10;8.03;;;3.90;;
46751;SDS011;32497;48.936;9.270;2023-04-07T06:53:13;7.37;;;3.97;;
46751;SDS011;32497;48.936;9.270;2023-04-07T06:58:14;8.33;;;3.97;;
46751;SDS011;32497;48.936;9.270;2023-04-07T07:03:15;7.90;;;4.40;;
46751;SDS011;32497;48.936;9.270;2023-04-07T07:08:18;9.17;;;4.90;;
46751;SDS011;32497;48.936;9.270;2023-04-07T07:13:21;8.70;;;3.77;;
46751;SDS011;32497;48.936;9.270;2023-04-07T07:18:23;9.03;;;4.37;;
46751;SDS011;32497;48.936;9.270;2023-04-07T07:23:25;8.57;;;3.87;;
46751;SDS011;32497;48.936;9.270;2023-04-07T07:28:26;8.37;;;3.63;;
46751;SDS011;32497;48.936;9.270;2023-04-07T07:33:27;7.50;;;3.83;;
46751;SDS011;32497;48.936;9.270;2023-04-07T07:38:30;7.63;;;3.90;;
46751;SDS011;32497;48.936;9.270;2023-04-07T07:43:31;10.10;;;4.50;;
46751;SDS011;32497;48.936;9.270;2023-04-07T07:48:32;10.77;;;4.57;;
46751;SDS011;32497;48.936;9.270;2023-04-07T07:53:34;6.87;;;4.10;;
46751;SDS011;32497;48.936;9.270;2023-04-07T07:58:35;8.97;;;4.57;;
46751;SDS011;32497;48.936;9.270;2023-04-07T08:03:37;8.13;;;3.97;;
46751;SDS011;32497;48.936;9.270;2023-04-07T08:08:39;7.00;;;3.80;;
46751;SDS011;32497;48.936;9.270;2023-04-07T08:13:40;10.40;;;4.37;;
46751;SDS011;32497;48.936;9.270;2023-04-07T08:18:41;6.87;;;4.23;;
46751;SDS011;32497;48.936;9.270;2023-04-07T08:23:44;5.63;;;3.33;;
46751;SDS011;32497;48.936;9.270;2023-04-07T08:28:45;6.83;;;3.90;;
46751;SDS011;32497;48.936;9.270;2023-04-07T08:33:46;6.07;;;3.30;;
46751;SDS011;32497;48.936;9.270;2023-04-07T08:38:49;8.60;;;3.73;;
46751;SDS011;32497;48.936;9.270;2023-04-07T08:43:50;8.43;;;4.17;;
46751;SDS011;32497;48.936;9.270;2023-04-07T08:48:52;6.20;;;3.57;;
46751;SDS011;32497;48.936;9.270;2023-04-07T08:53:59;5.60;;;3.40;;
46751;SDS011;32497;48.936;9.270;2023-04-07T08:59:05;6.10;;;3.20;;
46751;SDS011;32497;48.936;9.270;2023-04-07T09:04:07;7.23;;;3.50;;
46751;SDS011;32497;48.936;9.270;2023-04-07T09:09:10;7.77;;;3.97;;
46751;SDS011;32497;48.936;9.270;2023-04-07T09:14:12;6.70;;;3.50;;
46751;SDS011;32497;48.936;9.270;2023-04-07T09:19:13;7.93;;;3.90;;
46751;SDS011;32497;48.936;9.270;2023-04-07T09:24:22;5.47;;;3.50;;
46751;SDS011;32497;48.936;9.270;2023-04-07T09:29:24;6.97;;;4.05;;
46751;SDS011;32497;48.936;9.270;2023-04-07T09:34:26;7.00;;;4.15;;
46751;SDS011;32497;48.936;9.270;2023-04-07T09:39:29;6.05;;;3.72;;
46751;SDS011;32497;48.936;9.270;2023-04-07T09:44:31;5.95;;;3.42;;
46751;SDS011;32497;48.936;9.270;2023-04-07T09:49:47;7.22;;;3.88;;
46751;SDS011;32497;48.936;9.270;2023-04-07T09:54:51;6.40;;;3.80;;
46751;SDS011;32497;48.936;9.270;2023-04-07T09:59:53;6.40;;;4.00;;
46751;SDS011;32497;48.936;9.270;2023-04-07T10:04:55;5.50;;;3.28;;
46751;SDS011;32497;48.936;9.270;2023-04-07T10:09:58;5.38;;;3.30;;
46751;SDS011;32497;48.936;9.270;2023-04-07T10:14:59;6.68;;;3.60;;
46751;SDS011;32497;48.936;9.270;2023-04-07T10:20:01;5.25;;;3.50;;
46751;SDS011;32497;48.936;9.270;2023-04-07T10:25:07;6.45;;;3.35;;
46751;SDS011;32497;48.936;9.270;2023-04-07T10:30:11;8.40;;;3.90;;
46751;SDS011;32497;48.936;9.270;2023-04-07T10:35:15;6.20;;;3.10;;
46751;SDS011;32497;48.936;9.270;2023-04-07T10:40:27;5.43;;;3.50;;
46751;SDS011;32497;48.936;9.270;2023-04-07T10:56:25;4.53;;;3.13;;
46751;SDS011;32497;48.936;9.270;2023-04-07T11:01:46;6.20;;;3.35;;
46751;SDS011;32497;48.936;9.270;2023-04-07T11:06:47;4.90;;;3.28;;
46751;SDS011;32497;48.936;9.270;2023-04-07T11:11:50;4.95;;;2.78;;
46751;SDS011;32497;48.936;9.270;2023-04-07T11:16:51;5.00;;;3.00;;
46751;SDS011;32497;48.936;9.270;2023-04-07T11:27:16;4.47;;;2.60;;
46751;SDS011;32497;48.936;9.270;2023-04-07T11:32:20;3.75;;;2.40;;
46751;SDS011;32497;48.936;9.270;2023-04-07T11:37:22;5.32;;;2.20;;
46751;SDS011;32497;48.936;9.270;2023-04-07T11:42:32;4.38;;;2.88;;
46751;SDS011;32497;48.936;9.270;2023-04-07T11:47:34;4.05;;;2.63;;
46751;SDS011;32497;48.936;9.270;2023-04-07T11:52:42;4.80;;;3.05;;
46751;SDS011;32497;48.936;9.270;2023-04-07T11:57:44;5.88;;;2.90;;
46751;SDS011;32497;48.936;9.270;2023-04-07T12:02:45;5.32;;;2.97;;
46751;SDS011;32497;48.936;9.270;2023-04-07T12:07:51;3.45;;;2.10;;
46751;SDS011;32497;48.936;9.270;2023-04-07T12:12:54;3.88;;;2.05;;
46751;SDS011;32497;48.936;9.270;2023-04-07T12:17:55;3.40;;;2.13;;
46751;SDS011;32497;48.936;9.270;2023-04-07T12:22:56;8.63;;;3.90;;
46751;SDS011;32497;48.936;9.270;2023-04-07T12:27:59;4.30;;;2.57;;
46751;SDS011;32497;48.936;9.270;2023-04-07T12:33:00;5.60;;;2.97;;
46751;SDS011;32497;48.936;9.270;2023-04-07T12:38:01;8.83;;;3.10;;
46751;SDS011;32497;48.936;9.270;2023-04-07T12:43:04;3.23;;;1.80;;
46751;SDS011;32497;48.936;9.270;2023-04-07T12:48:05;3.13;;;2.40;;
46751;SDS011;32497;48.936;9.270;2023-04-07T12:53:06;2.93;;;2.20;;
46751;SDS011;32497;48.936;9.270;2023-04-07T12:58:09;4.53;;;2.23;;
46751;SDS011;32497;48.936;9.270;2023-04-07T13:03:10;7.90;;;2.63;;
46751;SDS011;32497;48.936;9.270;2023-04-07T13:08:11;4.80;;;2.40;;
46751;SDS011;32497;48.936;9.270;2023-04-07T13:13:14;5.53;;;2.47;;
46751;SDS011;32497;48.936;9.270;2023-04-07T13:18:15;4.00;;;2.53;;
46751;SDS011;32497;48.936;9.270;2023-04-07T13:23:16;5.38;;;2.55;;
46751;SDS011;32497;48.936;9.270;2023-04-07T13:28:18;3.55;;;2.50;;
46751;SDS011;32497;48.936;9.270;2023-04-07T13:33:20;3.70;;;2.20;;
46751;SDS011;32497;48.936;9.270;2023-04-07T13:38:21;6.30;;;2.50;;
46751;SDS011;32497;48.936;9.270;2023-04-07T13:43:23;3.38;;;2.40;;
46751;SDS011;32497;48.936;9.270;2023-04-07T13:48:24;5.35;;;2.42;;
46751;SDS011;32497;48.936;9.270;2023-04-07T13:53:25;4.57;;;2.53;;
46751;SDS011;32497;48.936;9.270;2023-04-07T13:58:28;4.03;;;2.40;;
46751;SDS011;32497;48.936;9.270;2023-04-07T14:03:29;3.53;;;2.30;;
46751;SDS011;32497;48.936;9.270;2023-04-07T14:08:30;3.25;;;2.25;;
46751;SDS011;32497;48.936;9.270;2023-04-07T14:13:33;5.22;;;2.35;;
46751;SDS011;32497;48.936;9.270;2023-04-07T14:18:34;4.63;;;2.50;;
46751;SDS011;32497;48.936;9.270;2023-04-07T14:23:35;3.40;;;2.10;;
46751;SDS011;32497;48.936;9.270;2023-04-07T14:28:38;3.53;;;2.20;;
46751;SDS011;32497;48.936;9.270;2023-04-07T14:33:39;4.93;;;2.20;;
46751;SDS011;32497;48.936;9.270;2023-04-07T14:38:40;4.07;;;2.13;;
46751;SDS011;32497;48.936;9.270;2023-04-07T14:43:43;5.30;;;2.60;;
46751;SDS011;32497;48.936;9.270;2023-04-07T14:48:44;6.73;;;2.60;;
46751;SDS011;32497;48.936;9.270;2023-04-07T14:53:46;4.93;;;2.37;;
46751;SDS011;32497;48.936;9.270;2023-04-07T14:58:48;4.10;;;2.13;;
46751;SDS011;32497;48.936;9.270;2023-04-07T15:03:50;3.70;;;2.00;;
46751;SDS011;32497;48.936;9.270;2023-04-07T15:08:51;2.17;;;1.70;;
46751;SDS011;32497;48.936;9.270;2023-04-07T15:13:54;4.70;;;2.37;;
46751;SDS011;32497;48.936;9.270;2023-04-07T15:18:55;3.30;;;2.23;;
46751;SDS011;32497;48.936;9.270;2023-04-07T15:23:56;5.13;;;2.40;;
46751;SDS011;32497;48.936;9.270;2023-04-07T15:28:58;5.33;;;2.40;;
46751;SDS011;32497;48.936;9.270;2023-04-07T15:34:00;3.93;;;2.53;;
46751;SDS011;32497;48.936;9.270;2023-04-07T15:39:01;2.70;;;1.50;;
46751;SDS011;32497;48.936;9.270;2023-04-07T15:44:05;2.27;;;1.40;;
46751;SDS011;32497;48.936;9.270;2023-04-07T15:49:06;3.27;;;1.70;;
46751;SDS011;32497;48.936;9.270;2023-04-07T15:54:07;3.23;;;1.60;;
46751;SDS011;32497;48.936;9.270;2023-04-07T15:59:10;2.30;;;1.60;;
46751;SDS011;32497;48.936;9.270;2023-04-07T16:04:11;3.22;;;1.40;;
46751;SDS011;32497;48.936;9.270;2023-04-07T16:09:12;3.88;;;1.30;;
46751;SDS011;32497;48.936;9.270;2023-04-07T16:14:14;2.25;;;1.30;;
46751;SDS011;32497;48.936;9.270;2023-04-07T16:19:15;2.10;;;1.20;;
46751;SDS011;32497;48.936;9.270;2023-04-07T16:24:16;2.38;;;1.60;;
46751;SDS011;32497;48.936;9.270;2023-04-07T16:29:19;3.83;;;1.70;;
46751;SDS011;32497;48.936;9.270;2023-04-07T16:34:20;3.40;;;1.80;;
46751;SDS011;32497;48.936;9.270;2023-04-07T16:39:21;1.60;;;1.10;;
46751;SDS011;32497;48.936;9.270;2023-04-07T16:44:24;3.70;;;1.50;;
46751;SDS011;32497;48.936;9.270;2023-04-07T16:49:25;2.30;;;1.33;;
46751;SDS011;32497;48.936;9.270;2023-04-07T16:54:26;4.50;;;1.40;;
46751;SDS011;32497;48.936;9.270;2023-04-07T16:59:29;2.27;;;1.30;;
46751;SDS011;32497;48.936;9.270;2023-04-07T17:04:30;2.27;;;1.20;;
46751;SDS011;32497;48.936;9.270;2023-04-07T17:09:31;3.83;;;1.30;;
46751;SDS011;32497;48.936;9.270;2023-04-07T17:14:34;1.50;;;1.00;;
46751;SDS011;32497;48.936;9.270;2023-04-07T17:19:35;2.20;;;1.10;;
46751;SDS011;32497;48.936;9.270;2023-04-07T17:24:36;2.37;;;1.50;;
46751;SDS011;32497;48.936;9.270;2023-04-07T17:29:39;2.03;;;1.57;;
46751;SDS011;32497;48.936;9.270;2023-04-07T17:34:40;3.70;;;2.13;;
46751;SDS011;32497;48.936;9.270;2023-04-07T17:39:41;3.10;;;1.90;;
46751;SDS011;32497;48.936;9.270;2023-04-07T17:44:43;2.23;;;1.47;;
46751;SDS011;32497;48.936;9.270;2023-04-07T17:49:44;4.00;;;1.83;;
46751;SDS011;32497;48.936;9.270;2023-04-07T17:54:46;3.10;;;1.77;;
46751;SDS011;32497;48.936;9.270;2023-04-07T17:59:48;3.30;;;1.80;;
46751;SDS011;32497;48.936;9.270;2023-04-07T18:04:49;3.93;;;1.70;;
46751;SDS011;32497;48.936;9.270;2023-04-07T18:09:50;1.97;;;1.47;;
46751;SDS011;32497;48.936;9.270;2023-04-07T18:14:53;3.80;;;1.40;;
46751;SDS011;32497;48.936;9.270;2023-04-07T18:19:54;1.40;;;1.00;;
46751;SDS011;32497;48.936;9.270;2023-04-07T18:24:55;2.93;;;1.70;;
46751;SDS011;32497;48.936;9.270;2023-04-07T18:29:58;2.50;;;1.50;;
46751;SDS011;32497;48.936;9.270;2023-04-07T18:34:59;2.70;;;1.53;;
46751;SDS011;32497;48.936;9.270;2023-04-07T18:40:00;2.33;;;1.30;;
46751;SDS011;32497;48.936;9.270;2023-04-07T18:45:03;3.53;;;1.50;;
46751;SDS011;32497;48.936;9.270;2023-04-07T18:50:05;2.40;;;1.67;;
46751;SDS011;32497;48.936;9.270;2023-04-07T18:55:07;1.47;;;1.13;;
46751;SDS011;32497;48.936;9.270;2023-04-07T19:00:10;2.63;;;1.50;;
46751;SDS011;32497;48.936;9.270;2023-04-07T19:05:11;1.93;;;1.50;;
46751;SDS011;32497;48.936;9.270;2023-04-07T19:10:13;2.93;;;1.43;;
46751;SDS011;32497;48.936;9.270;2023-04-07T19:15:15;2.37;;;1.43;;
46751;SDS011;32497;48.936;9.270;2023-04-07T19:20:17;2.30;;;1.40;;
46751;SDS011;32497;48.936;9.270;2023-04-07T19:25:18;4.50;;;1.90;;
46751;SDS011;32497;48.936;9.270;2023-04-07T19:30:20;4.43;;;1.93;;
46751;SDS011;32497;48.936;9.270;2023-04-07T19:35:21;2.47;;;1.47;;
46751;SDS011;32497;48.936;9.270;2023-04-07T19:40:23;3.20;;;1.97;;
46751;SDS011;32497;48.936;9.270;2023-04-07T19:45:25;3.63;;;1.83;;
46751;SDS011;32497;48.936;9.270;2023-04-07T19:50:27;3.23;;;1.90;;
46751;SDS011;32497;48.936;9.270;2023-04-07T19:55:28;4.03;;;2.33;;
46751;SDS011;32497;48.936;9.270;2023-04-07T20:00:33;4.30;;;2.33;;
46751;SDS011;32497;48.936;9.270;2023-04-07T20:05:34;4.23;;;2.43;;
46751;SDS011;32497;48.936;9.270;2023-04-07T20:10:35;3.93;;;2.20;;
46751;SDS011;32497;48.936;9.270;2023-04-07T20:15:37;4.30;;;2.23;;
46751;SDS011;32497;48.936;9.270;2023-04-07T20:20:39;3.10;;;1.90;;
46751;SDS011;32497;48.936;9.270;2023-04-07T20:25:40;3.43;;;1.90;;
46751;SDS011;32497;48.936;9.270;2023-04-07T20:30:42;4.00;;;2.17;;
46751;SDS011;32497;48.936;9.270;2023-04-07T20:35:43;3.23;;;2.07;;
46751;SDS011;32497;48.936;9.270;2023-04-07T20:40:45;4.53;;;2.57;;
46751;SDS011;32497;48.936;9.270;2023-04-07T20:45:47;3.33;;;2.37;;
46751;SDS011;32497;48.936;9.270;2023-04-07T20:50:48;4.27;;;2.47;;
46751;SDS011;32497;48.936;9.270;2023-04-07T20:55:50;3.60;;;2.23;;
46751;SDS011;32497;48.936;9.270;2023-04-07T21:00:55;4.80;;;2.30;;
46751;SDS011;32497;48.936;9.270;2023-04-07T21:05:56;5.07;;;2.60;;
46751;SDS011;32497;48.936;9.270;2023-04-07T21:10:57;5.03;;;2.67;;
46751;SDS011;32497;48.936;9.270;2023-04-07T21:16:00;6.30;;;2.60;;
46751;SDS011;32497;48.936;9.270;2023-04-07T21:21:01;3.27;;;2.13;;
46751;SDS011;32497;48.936;9.270;2023-04-07T21:26:02;4.50;;;2.27;;
46751;SDS011;32497;48.936;9.270;2023-04-07T21:31:05;3.77;;;2.03;;
46751;SDS011;32497;48.936;9.270;2023-04-07T21:36:06;5.60;;;2.57;;
46751;SDS011;32497;48.936;9.270;2023-04-07T21:41:07;3.40;;;2.17;;
46751;SDS011;32497;48.936;9.270;2023-04-07T21:46:10;4.30;;;2.40;;
46751;SDS011;32497;48.936;9.270;2023-04-07T21:51:11;4.03;;;2.33;;
46751;SDS011;32497;48.936;9.270;2023-04-07T21:56:12;4.63;;;2.60;;
46751;SDS011;32497;48.936;9.270;2023-04-07T22:01:15;4.43;;;2.67;;
46751;SDS011;32497;48.936;9.270;2023-04-07T22:06:17;3.77;;;2.07;;
46751;SDS011;32497;48.936;9.270;2023-04-07T22:11:18;3.40;;;1.87;;
46751;SDS011;32497;48.936;9.270;2023-04-07T22:16:20;6.03;;;2.80;;
46751;SDS011;32497;48.936;9.270;2023-04-07T22:21:21;3.00;;;2.00;;
46751;SDS011;32497;48.936;9.270;2023-04-07T22:26:22;3.23;;;2.10;;
46751;SDS011;32497;48.936;9.270;2023-04-07T22:31:25;3.63;;;2.30;;
46751;SDS011;32497;48.936;9.270;2023-04-07T22:36:26;3.57;;;2.33;;
46751;SDS011;32497;48.936;9.270;2023-04-07T22:41:27;4.07;;;2.40;;
46751;SDS011;32497;48.936;9.270;2023-04-07T22:46:30;2.57;;;1.97;;
46751;SDS011;32497;48.936;9.270;2023-04-07T22:51:31;4.43;;;2.27;;
46751;SDS011;32497;48.936;9.270;2023-04-07T22:56:32;4.37;;;2.10;;
46751;SDS011;32497;48.936;9.270;2023-04-07T23:01:34;4.57;;;2.57;;
46751;SDS011;32497;48.936;9.270;2023-04-07T23:06:35;4.30;;;2.40;;
46751;SDS011;32497;48.936;9.270;2023-04-07T23:11:37;4.93;;;2.83;;
46751;SDS011;32497;48.936;9.270;2023-04-07T23:16:39;5.53;;;3.10;;
46751;SDS011;32497;48.936;9.270;2023-04-07T23:21:40;4.87;;;2.60;;
46751;SDS011;32497;48.936;9.270;2023-04-07T23:26:42;4.73;;;2.47;;
46751;SDS011;32497;48.936;9.270;2023-04-07T23:31:44;6.27;;;2.90;;
46751;SDS011;32497;48.936;9.270;2023-04-07T23:36:46;3.83;;;2.50;;
46751;SDS011;32497;48.936;9.270;2023-04-07T23:41:47;4.93;;;3.07;;
46751;SDS011;32497;48.936;9.270;2023-04-07T23:46:50;10.13;;;3.20;;
46751;SDS011;32497;48.936;9.270;2023-04-07T23:51:51;4.40;;;2.83;;
46751;SDS011;32497;48.936;9.270;2023-04-07T23:56:52;6.43;;;3.07;;
